Terminal Aerodrome Forecast
Issued by NWS

Home | Current Version | Previous Version | Text Only | Print | Product List | Glossary On
Versions: 1 2 3 4 5 6 7 8 9 10 11 12 13 14 15 16 17 18 19
000
FTUS43 KDTX 211400 AAB
TAFDET
TAF AMD
KDET 211412Z 2114/2212 26015G25KT P6SM SCT025 BKN040
      TEMPO 2117/2119 6SM -SHRA BR BKN025
     FM211900 29012G18KT 5SM -SHRA BKN020
     FM212200 35013G23KT P6SM BKN025
     FM220000 33012KT P6SM BKN020=

USA.gov is the U.S. government's official web portal to all federal, state and local government web resources and services.